Terminal Aerodrome Forecast
Issued by NWS Binghamton, NY

Home | Current Version | Previous Version | Text Only | Print | Product List | Glossary On
Versions: 1 2 3 4 5 6 7 8 9 10 11 12 13 14 15 16 17 18 19 20
000
FTUS41 KBGM 192300 RRA
TAFSYR
TAF
KSYR 192343Z 2000/2024 15008KT P6SM BKN200
     FM200900 17010KT P6SM BKN035
      TEMPO 2009/2013 OVC025
     FM201500 21012G22KT P6SM BKN045=

USA.gov is the U.S. government's official web portal to all federal, state and local government web resources and services.